Time;durP1;ratioP1;P1;durP2;ratioP2;P2;SDS_P1;SDS_P2;PMS_P1;PMS_P2;Temp;Humidity;BMP_temperature;BMP_pressure;BME280_temperature;BME280_humidity;BME280_pressure;Samples;Min_cycle;Max_cycle;Signal;HPM_P1;HPM_P2
2022/04/26 05:56:23;;;;;;;11.17;4.93;;;;;;;2.41;nan;100963.59;4986601;23;20117;-80
2022/04/26 05:58:50;;;;;;;9.97;5.77;;;;;;;2.33;nan;100959.97;4987096;28;20045;-78
2022/04/26 06:01:17;;;;;;;11.50;5.27;;;;;;;2.12;nan;100964.81;4972974;28;20031;-79
2022/04/26 06:03:43;;;;;;;7.43;4.83;;;;;;;2.03;nan;100960.31;4972946;28;20047;-78
2022/04/26 06:06:10;;;;;;;8.50;5.50;;;;;;;2.02;nan;100960.25;4974629;28;20045;-79
2022/04/26 06:08:37;;;;;;;9.00;4.97;;;;;;;2.11;nan;100960.47;4973285;28;20043;-79
2022/04/26 06:11:04;;;;;;;8.00;5.13;;;;;;;2.21;nan;100960.66;4974548;28;20096;-78
2022/04/26 06:13:31;;;;;;;8.43;5.30;;;;;;;2.36;nan;100962.66;4972195;28;20039;-78
2022/04/26 06:15:58;;;;;;;7.67;5.37;;;;;;;2.77;nan;100962.47;4966776;28;20039;-79
2022/04/26 06:18:25;;;;;;;9.60;5.00;;;;;;;2.93;nan;100979.25;4971014;28;20035;-80
2022/04/26 06:20:52;;;;;;;9.30;5.30;;;;;;;3.30;nan;100962.41;4972681;28;20041;-78
2022/04/26 06:23:19;;;;;;;11.23;5.00;;;;;;;4.45;nan;100965.47;4985318;28;20581;-78
2022/04/26 06:25:46;;;;;;;11.00;5.47;;;;;;;5.52;nan;100965.38;4974978;28;20053;-78
2022/04/26 06:28:13;;;;;;;7.60;4.47;;;;;;;6.49;nan;100960.47;4971439;28;20053;-78
2022/04/26 06:30:40;;;;;;;9.60;4.90;;;;;;;7.40;nan;100956.00;4974084;28;20049;-80
2022/04/26 06:33:07;;;;;;;8.50;4.87;;;;;;;8.23;nan;100953.84;4971424;28;20039;-78
2022/04/26 06:35:40;;;;;;;25.70;6.77;;;;;;;9.06;nan;100947.97;4972004;28;20061;-79
2022/04/26 06:38:07;;;;;;;8.00;4.67;;;;;;;9.65;nan;100938.53;4950884;28;20047;-78
2022/04/26 06:40:34;;;;;;;7.77;4.30;;;;;;;9.82;nan;100936.56;4951267;28;20043;-79
2022/04/26 06:43:01;;;;;;;35.30;7.30;;;;;;;9.90;nan;100944.38;4950742;28;20047;-79
2022/04/26 06:45:27;;;;;;;12.63;5.17;;;;;;;9.70;nan;100948.16;4950823;28;20043;-78
2022/04/26 06:47:55;;;;;;;11.67;4.43;;;;;;;9.56;nan;100943.03;4983437;28;20049;-78
2022/04/26 06:50:22;;;;;;;7.77;4.17;;;;;;;9.40;nan;100948.50;4969444;28;20038;-79
2022/04/26 06:52:49;;;;;;;6.47;4.10;;;;;;;9.52;nan;100948.38;4974526;28;20041;-79
2022/04/26 06:55:16;;;;;;;5.47;3.90;;;;;;;9.74;nan;100943.69;4955052;28;20045;-80
2022/04/26 06:57:43;;;;;;;5.40;3.40;;;;;;;10.07;nan;100942.38;4957199;29;20043;-79
2022/04/26 07:00:10;;;;;;;5.07;3.25;;;;;;;10.52;nan;100951.44;4968751;28;20038;-78
2022/04/26 07:02:38;;;;;;;5.28;2.92;;;;;;;10.98;nan;100940.97;4958754;28;20085;-79
2022/04/26 07:05:06;;;;;;;5.07;3.38;;;;;;;11.28;nan;100946.59;4973819;28;20043;-80
2022/04/26 07:07:33;;;;;;;4.45;2.75;;;;;;;11.37;nan;100942.91;4975773;28;20034;-79
2022/04/26 07:10:00;;;;;;;2.95;2.58;;;;;;;11.83;nan;100943.75;4974369;28;20069;-78
2022/04/26 07:12:27;;;;;;;4.22;2.75;;;;;;;11.77;nan;100946.50;4974486;28;20031;-79
2022/04/26 07:14:54;;;;;;;4.50;2.60;;;;;;;11.89;nan;100945.41;4974373;28;20402;-78
2022/04/26 07:17:21;;;;;;;5.15;2.95;;;;;;;12.11;nan;100945.81;4993383;23;20217;-83
2022/04/26 07:19:48;;;;;;;3.65;2.72;;;;;;;12.35;nan;100942.59;4993168;28;20548;-82
2022/04/26 07:22:26;;;;;;;3.17;2.20;;;;;;;12.58;nan;100944.69;4982213;28;20034;-83
2022/04/26 07:24:53;;;;;;;6.60;2.75;;;;;;;12.53;nan;100945.75;4976703;28;20504;-83
2022/04/26 07:27:20;;;;;;;4.35;3.22;;;;;;;13.00;nan;100947.19;4945580;28;20038;-82
2022/04/26 07:29:51;;;;;;;3.95;2.63;;;;;;;13.05;nan;100947.09;4959899;28;20418;-83
2022/04/26 07:32:18;;;;;;;3.03;2.60;;;;;;;13.21;nan;100948.47;4961664;28;20515;-82
2022/04/26 07:34:45;;;;;;;4.95;2.47;;;;;;;13.07;nan;100951.44;4976260;28;20044;-82
2022/04/26 07:37:12;;;;;;;2.90;2.10;;;;;;;13.39;nan;100957.69;4961854;28;20038;-82
2022/04/26 07:39:39;;;;;;;3.65;1.83;;;;;;;13.28;nan;100950.00;4976271;28;20034;-83
2022/04/26 07:42:06;;;;;;;2.80;2.20;;;;;;;13.36;nan;100955.97;4974235;28;20046;-82
2022/04/26 07:44:34;;;;;;;2.45;2.00;;;;;;;13.45;nan;100963.72;4959412;28;20056;-83
2022/04/26 07:47:04;;;;;;;4.32;2.10;;;;;;;13.77;nan;100957.47;4977516;28;20521;-82
2022/04/26 07:49:31;;;;;;;3.08;2.17;;;;;;;13.82;nan;100962.66;4975954;28;20042;-82
2022/04/26 07:51:59;;;;;;;4.50;2.50;;;;;;;13.87;nan;100960.72;4976979;28;20491;-83
2022/04/26 07:54:27;;;;;;;4.55;2.75;;;;;;;14.21;nan;100960.63;4959833;28;20052;-82
2022/04/26 07:56:55;;;;;;;2.90;2.28;;;;;;;14.39;nan;100966.28;4961349;28;20042;-82
2022/04/26 07:59:22;;;;;;;3.65;2.35;;;;;;;14.60;nan;100962.97;4959681;28;20050;-82
2022/04/26 08:01:49;;;;;;;4.03;2.33;;;;;;;14.77;nan;100957.97;4960153;28;20035;-82
2022/04/26 08:04:16;;;;;;;3.00;2.05;;;;;;;14.99;nan;100959.91;4943713;28;20050;-83
2022/04/26 08:06:44;;;;;;;4.05;2.58;;;;;;;14.81;nan;100961.41;4977241;28;20403;-82
2022/04/26 08:09:11;;;;;;;3.85;2.85;;;;;;;14.84;nan;100964.81;4975646;28;20430;-83
2022/04/26 08:11:38;;;;;;;4.38;2.67;;;;;;;14.55;nan;100973.75;4960660;28;20402;-79
2022/04/26 08:14:05;;;;;;;2.92;2.10;;;;;;;14.17;nan;100966.06;4975762;28;20053;-80
2022/04/26 08:16:32;;;;;;;3.75;2.65;;;;;;;14.00;nan;100970.09;4975987;28;20035;-79
2022/04/26 08:18:59;;;;;;;3.33;2.65;;;;;;;13.34;nan;100968.44;4973679;28;20076;-80
2022/04/26 08:21:26;;;;;;;2.72;2.20;;;;;;;13.19;nan;100969.69;4961887;28;20035;-84
2022/04/26 08:29:39;;;;;;;3.95;3.15;;;;;;;14.25;nan;100972.88;4969225;28;20054;-85
2022/04/26 08:32:06;;;;;;;3.33;2.67;;;;;;;14.46;nan;100968.75;4944974;28;20041;-84
2022/04/26 08:34:33;;;;;;;3.13;2.40;;;;;;;14.52;nan;100970.31;4958948;28;20038;-83
2022/04/26 08:37:00;;;;;;;4.90;2.53;;;;;;;14.68;nan;100971.56;4960067;28;20398;-84
2022/04/26 08:39:27;;;;;;;8.95;3.00;;;;;;;14.97;nan;100975.94;4958850;28;20122;-84
2022/04/26 08:41:58;;;;;;;2.90;2.35;;;;;;;15.17;nan;100973.47;4959677;28;20038;-84
2022/04/26 08:44:27;;;;;;;13.48;3.65;;;;;;;15.37;nan;100977.22;4942935;28;20061;-83
2022/04/26 08:52:48;;;;;;;7.63;2.50;;;;;;;16.14;nan;100978.81;4956848;28;20035;-83
2022/04/26 08:55:16;;;;;;;2.63;2.10;;;;;;;16.37;nan;100972.59;4973659;28;20042;-83
2022/04/26 08:57:43;;;;;;;2.85;2.30;;;;;;;16.65;nan;100975.06;4960280;28;20042;-83
2022/04/26 09:00:11;;;;;;;3.50;2.10;;;;;;;16.80;nan;100977.09;4974431;28;20050;-84
2022/04/26 09:02:39;;;;;;;2.95;2.17;;;;;;;15.57;nan;100981.84;4971144;28;20039;-83
2022/04/26 09:05:11;;;;;;;2.83;2.33;;;;;;;15.39;nan;100976.25;4954556;28;20044;-83
2022/04/26 09:07:39;;;;;;;3.33;2.80;;;;;;;15.96;nan;100968.88;4957842;28;20050;-83
2022/04/26 09:10:10;;;;;;;3.40;2.28;;;;;;;16.36;nan;100973.53;4934271;28;20422;-83
2022/04/26 09:13:01;;;;;;;3.97;2.75;;;;;;;16.97;nan;100967.53;4956147;28;20047;-82
2022/04/26 09:15:50;;;;;;;6.32;3.60;;;;;;;17.50;nan;100975.94;4940182;28;20049;-83
2022/04/26 09:18:20;;;;;;;3.15;1.92;;;;;;;17.66;nan;100973.44;4939454;28;20073;-83
2022/04/26 09:20:49;;;;;;;2.03;1.65;;;;;;;17.86;nan;100976.09;4958142;28;20038;-80
2022/04/26 09:23:17;;;;;;;2.10;1.90;;;;;;;18.17;nan;100969.34;4973598;28;20042;-84
2022/04/26 09:25:45;;;;;;;2.40;2.08;;;;;;;18.32;nan;100968.59;4975806;28;20042;-79
2022/04/26 09:28:25;;;;;;;2.72;2.22;;;;;;;17.94;nan;100960.59;4958487;28;20042;-82
2022/04/26 09:30:52;;;;;;;4.47;2.00;;;;;;;17.48;nan;100971.56;4959495;28;20118;-79
2022/04/26 09:33:41;;;;;;;2.58;2.10;;;;;;;16.85;nan;100966.25;4974550;28;20035;-83
2022/04/26 09:36:09;;;;;;;2.70;2.15;;;;;;;16.53;nan;100971.06;4976264;28;20503;-81
2022/04/26 09:38:37;;;;;;;6.22;2.50;;;;;;;16.50;nan;100967.66;4958234;28;20406;-81
2022/04/26 09:41:10;;;;;;;2.67;1.98;;;;;;;16.56;nan;100973.63;4975669;28;20414;-81
2022/04/26 09:43:38;;;;;;;2.27;1.83;;;;;;;16.42;nan;100972.44;4957904;28;20048;-81
2022/04/26 09:46:06;;;;;;;3.25;2.38;;;;;;;16.29;nan;100967.56;4959577;28;20077;-79
2022/04/26 09:48:36;;;;;;;3.28;2.35;;;;;;;16.33;nan;100973.66;4956377;28;20512;-81
2022/04/26 09:51:07;;;;;;;66.43;9.15;;;;;;;16.48;nan;100973.06;4942232;28;20038;-78
2022/04/26 09:53:34;;;;;;;5.80;2.40;;;;;;;16.70;nan;100965.09;4974537;28;20069;-82
2022/04/26 09:56:03;;;;;;;2.47;2.28;;;;;;;17.05;nan;100958.28;4974073;28;20049;-80
2022/04/26 09:58:43;;;;;;;2.60;2.17;;;;;;;17.16;nan;100963.16;4961706;28;20046;-80
2022/04/26 10:01:10;;;;;;;2.97;2.00;;;;;;;17.27;nan;100960.03;4957653;28;20380;-81
2022/04/26 10:03:41;;;;;;;2.65;2.22;;;;;;;17.63;nan;100952.19;4987614;28;20404;-80
2022/04/26 10:06:08;;;;;;;6.63;2.88;;;;;;;17.71;nan;100952.75;4972349;28;20052;-80
2022/04/26 10:08:36;;;;;;;3.72;2.15;;;;;;;17.85;nan;100952.13;4952691;28;20042;-81
2022/04/26 10:11:03;;;;;;;3.03;1.90;;;;;;;17.83;nan;100957.53;4937726;28;20040;-81
2022/04/26 10:13:38;;;;;;;7.70;2.42;;;;;;;17.48;nan;100955.53;4957540;28;20038;-82
2022/04/26 10:16:11;;;;;;;3.35;1.90;;;;;;;18.00;nan;100956.78;4959397;28;20050;-79
2022/04/26 10:18:45;;;;;;;4.95;2.33;;;;;;;17.56;nan;100951.59;4943786;28;20034;-80
2022/04/26 10:21:27;;;;;;;2.45;2.10;;;;;;;17.54;nan;100955.28;4980496;28;20035;-82
2022/04/26 10:24:01;;;;;;;2.60;2.05;;;;;;;17.49;nan;100949.25;4965552;28;20385;-83
2022/04/26 10:26:28;;;;;;;3.72;2.22;;;;;;;17.39;nan;100952.34;4953226;28;20035;-84
2022/04/26 10:29:01;;;;;;;3.47;2.15;;;;;;;17.60;nan;100945.19;4937234;28;20049;-83
2022/04/26 10:31:40;;;;;;;2.40;2.00;;;;;;;17.71;nan;100947.41;4980042;28;20224;-84
2022/04/26 10:34:29;;;;;;;2.55;1.92;;;;;;;17.75;nan;100945.47;4939252;28;20412;-83
2022/04/26 10:36:57;;;;;;;3.10;2.20;;;;;;;17.28;nan;100957.28;4973963;28;20045;-83
2022/04/26 10:40:08;;;;;;;4.70;2.58;;;;;;;17.07;nan;100955.56;4972537;28;20042;-84
2022/04/26 10:42:35;;;;;;;2.85;2.00;;;;;;;16.87;nan;100954.56;4928655;28;20047;-81
2022/04/26 10:45:10;;;;;;;3.72;2.20;;;;;;;17.22;nan;100948.66;4953434;28;20053;-82
2022/04/26 10:47:39;;;;;;;3.17;2.38;;;;;;;17.39;nan;100954.13;4944744;28;20038;-81
2022/04/26 10:50:07;;;;;;;3.55;2.08;;;;;;;17.63;nan;100941.50;4972855;28;20041;-83
2022/04/26 10:52:40;;;;;;;2.45;2.25;;;;;;;17.72;nan;100935.78;4935997;28;20076;-81
2022/04/26 10:55:09;;;;;;;4.03;2.20;;;;;;;18.17;nan;100930.09;4973096;28;20034;-82
2022/04/26 10:57:44;;;;;;;3.10;2.20;;;;;;;18.09;nan;100926.06;4934889;28;20047;-80
2022/04/26 11:00:21;;;;;;;2.88;2.10;;;;;;;18.27;nan;100933.19;4956301;28;20075;-82
2022/04/26 11:02:50;;;;;;;2.40;1.95;;;;;;;18.55;nan;100933.56;4958743;28;20035;-83
2022/04/26 11:05:23;;;;;;;3.30;2.33;;;;;;;18.77;nan;100929.88;4957460;28;20073;-82
2022/04/26 11:07:51;;;;;;;3.08;2.15;;;;;;;18.82;nan;100930.50;4953379;28;20046;-80
2022/04/26 11:10:21;;;;;;;2.42;2.17;;;;;;;18.89;nan;100926.56;4989434;28;20072;-81
2022/04/26 11:12:48;;;;;;;3.08;2.03;;;;;;;18.14;nan;100926.69;4965689;28;20044;-81
2022/04/26 11:15:19;;;;;;;121.35;14.80;;;;;;;19.23;nan;100927.53;4954250;28;20043;-82
2022/04/26 11:17:49;;;;;;;9.05;2.20;;;;;;;20.05;nan;100923.09;4976876;28;20044;-84
2022/04/26 11:20:26;;;;;;;4.15;1.80;;;;;;;20.74;nan;100930.78;4990382;28;20030;-84
2022/04/26 11:22:57;;;;;;;4.30;2.40;;;;;;;20.36;nan;100930.28;4973029;28;20048;-84
2022/04/26 11:28:13;;;;;;;3.15;2.00;;;;;;;20.60;nan;100935.22;4964370;28;20045;-83
2022/04/26 11:30:45;;;;;;;3.17;2.22;;;;;;;19.30;nan;100932.47;4957013;28;20057;-83
2022/04/26 11:33:22;;;;;;;2.47;1.95;;;;;;;19.08;nan;100935.38;4956770;28;20522;-84
2022/04/26 11:35:52;;;;;;;3.08;2.25;;;;;;;18.80;nan;100945.78;4957452;28;20046;-85
2022/04/26 11:38:21;;;;;;;2.85;1.77;;;;;;;18.92;nan;100939.81;4959030;28;20064;-86
2022/04/26 11:40:50;;;;;;;3.10;2.20;;;;;;;19.44;nan;100937.13;4945071;28;20038;-85
2022/04/26 11:43:18;;;;;;;2.80;1.70;;;;;;;19.45;nan;100938.84;4975912;28;20042;-85
2022/04/26 11:45:47;;;;;;;3.08;2.00;;;;;;;19.03;nan;100944.63;4961765;28;20042;-86
2022/04/26 11:48:17;;;;;;;3.30;2.28;;;;;;;18.09;nan;100944.78;4943801;28;20057;-86
2022/04/26 11:50:46;;;;;;;2.30;2.00;;;;;;;17.91;nan;100947.38;4945359;28;20042;-85
2022/04/26 11:53:16;;;;;;;2.33;1.80;;;;;;;17.86;nan;100941.34;4959981;28;20521;-85
2022/04/26 11:55:53;;;;;;;3.63;2.13;;;;;;;17.54;nan;100944.59;4962457;28;20050;-87
2022/04/26 11:58:22;;;;;;;2.35;2.10;;;;;;;17.64;nan;100949.44;4944778;28;20527;-84
2022/04/26 12:01:15;;;;;;;2.42;1.70;;;;;;;17.21;nan;100946.94;4945945;28;20042;-86
2022/04/26 12:03:52;;;;;;;3.10;1.90;;;;;;;17.14;nan;100941.00;4981486;28;20038;-86
2022/04/26 12:06:26;;;;;;;2.03;1.70;;;;;;;16.96;nan;100939.09;4961628;28;20640;-86
2022/04/26 12:08:57;;;;;;;2.50;2.03;;;;;;;16.81;nan;100932.59;4942085;28;20399;-81
2022/04/26 12:11:26;;;;;;;2.70;2.00;;;;;;;16.67;nan;100943.84;4941499;28;20049;-82
2022/04/26 12:14:14;;;;;;;2.88;2.40;;;;;;;16.34;nan;100943.41;4953713;28;20511;-82
2022/04/26 12:16:49;;;;;;;2.50;1.80;;;;;;;16.29;nan;100940.91;4980825;28;20031;-84
2022/04/26 12:19:16;;;;;;;2.22;2.03;;;;;;;16.06;nan;100943.63;4955053;28;20522;-82
2022/04/26 12:21:45;;;;;;;2.70;2.17;;;;;;;16.43;nan;100942.16;4955320;28;20050;-80
2022/04/26 12:24:15;;;;;;;2.53;1.95;;;;;;;16.82;nan;100929.91;4992124;28;20045;-82
2022/04/26 12:26:59;;;;;;;2.90;1.85;;;;;;;17.11;nan;100939.31;4977348;28;20035;-81
2022/04/26 12:29:27;;;;;;;;;;;;;;;17.12;nan;100938.38;4975929;28;20217;-85
2022/04/26 12:31:55;;;;;;;8.10;4.00;;;;;;;17.11;nan;100942.00;4944598;28;19946;-80
2022/04/26 12:34:29;;;;;;;3.35;2.95;;;;;;;17.11;nan;100936.66;4958067;28;20037;-83
2022/04/26 12:37:08;;;;;;;2.85;2.30;;;;;;;17.09;nan;100929.66;4976449;28;20045;-82
2022/04/26 12:39:41;;;;;;;5.25;2.30;;;;;;;16.96;nan;100931.97;4939769;28;20046;-81
2022/04/26 12:42:10;;;;;;;3.85;3.17;;;;;;;17.06;nan;100935.97;4987803;28;20031;-85
2022/04/26 12:44:54;;;;;;;3.80;2.10;;;;;;;16.99;nan;100931.00;4959829;28;20042;-81
2022/04/26 12:53:05;;;;;;;2.28;1.80;;;;;;;16.81;nan;100933.47;4998456;28;20048;-83
2022/04/26 12:55:40;;;;;;;2.58;1.70;;;;;;;16.86;nan;100935.97;4992787;28;20046;-82
2022/04/26 12:58:12;;;;;;;2.90;2.65;;;;;;;16.92;nan;100933.03;4960527;28;20053;-84
2022/04/26 13:00:40;;;;;;;4.25;3.30;;;;;;;16.99;nan;100931.00;4960087;28;20058;-83
2022/04/26 13:03:07;;;;;;;2.78;2.38;;;;;;;16.80;nan;100926.41;4984953;28;20054;-83
2022/04/26 13:05:40;;;;;;;2.95;2.00;;;;;;;16.79;nan;100930.00;4954736;28;20598;-81
2022/04/26 13:08:11;;;;;;;2.35;2.05;;;;;;;16.70;nan;100927.72;4958958;28;20042;-82
2022/04/26 13:10:40;;;;;;;3.22;1.85;;;;;;;16.72;nan;100927.66;4959610;28;20050;-83
2022/04/26 13:13:08;;;;;;;4.60;3.38;;;;;;;16.73;nan;100929.41;4975262;28;20030;-81
2022/04/26 13:15:35;;;;;;;11.32;7.00;;;;;;;16.47;nan;100923.28;4958867;28;20542;-84
2022/04/26 13:18:03;;;;;;;3.28;2.22;;;;;;;16.40;nan;100931.63;4964952;28;20049;-82
2022/04/26 13:20:32;;;;;;;2.72;2.17;;;;;;;16.24;nan;100926.91;4959117;28;20046;-82
2022/04/26 13:22:59;;;;;;;3.08;1.90;;;;;;;16.19;nan;100923.53;4959550;28;20046;-81
2022/04/26 13:25:26;;;;;;;2.22;1.90;;;;;;;16.15;nan;100921.94;5047014;23;20035;-80
2022/04/26 13:27:53;;;;;;;2.15;1.80;;;;;;;16.12;nan;100923.84;4997500;28;20052;-80
2022/04/26 13:30:20;;;;;;;4.65;4.30;;;;;;;16.23;nan;100927.84;4991674;28;20054;-82
2022/04/26 13:32:47;;;;;;;4.10;2.15;;;;;;;16.22;nan;100923.41;4974353;28;20046;-81
2022/04/26 13:35:14;;;;;;;11.10;3.00;;;;;;;16.22;nan;100930.53;4993210;28;20042;-81
2022/04/26 13:37:43;;;;;;;2.08;1.70;;;;;;;16.20;nan;100927.06;4991537;28;20038;-81
2022/04/26 13:40:10;;;;;;;2.25;2.00;;;;;;;15.97;nan;100922.63;4990907;28;20044;-80
2022/04/26 13:42:38;;;;;;;2.53;2.00;;;;;;;15.83;nan;100919.66;4995073;28;20042;-81
2022/04/26 13:45:06;;;;;;;2.80;1.85;;;;;;;15.87;nan;100926.59;4978188;28;20038;-82
2022/04/26 13:47:34;;;;;;;3.00;1.98;;;;;;;15.91;nan;100918.44;4977435;28;20105;-80
2022/04/26 13:50:01;;;;;;;2.40;2.00;;;;;;;15.94;nan;100920.09;4993713;28;20422;-80
2022/04/26 13:52:28;;;;;;;2.50;2.00;;;;;;;15.84;nan;100922.25;4996025;28;20511;-82
2022/04/26 13:54:55;;;;;;;2.65;2.00;;;;;;;15.84;nan;100924.91;4995591;28;20045;-80
2022/04/26 13:57:23;;;;;;;1.98;1.77;;;;;;;15.68;nan;100921.97;4980527;28;20036;-84
2022/04/26 13:59:49;;;;;;;2.78;1.90;;;;;;;15.74;nan;100919.06;4987777;28;20045;-80
2022/04/26 14:02:18;;;;;;;2.95;2.30;;;;;;;15.79;nan;100918.00;4960349;28;20057;-81
2022/04/26 14:04:49;;;;;;;2.65;1.73;;;;;;;15.91;nan;100920.22;4990845;28;20046;-80
2022/04/26 14:07:17;;;;;;;2.10;1.80;;;;;;;16.01;nan;100919.81;4980090;28;20064;-81
2022/04/26 14:09:44;;;;;;;3.08;2.00;;;;;;;15.95;nan;100914.69;5010762;28;20041;-80
2022/04/26 14:12:13;;;;;;;2.70;1.90;;;;;;;15.89;nan;100919.38;4979904;28;20054;-80
2022/04/26 14:23:16;;;;;;;2.60;1.67;;;;;;;15.73;nan;100922.66;4917211;29;20047;-82
2022/04/26 14:25:44;;;;;;;3.63;1.70;;;;;;;15.64;nan;100917.69;4939914;28;20058;-83
2022/04/26 14:28:11;;;;;;;2.78;1.88;;;;;;;15.57;nan;100917.94;4978863;28;20045;-81
2022/04/26 14:30:38;;;;;;;3.38;2.15;;;;;;;15.47;nan;100920.06;4974691;28;20042;-83
2022/04/26 14:33:07;;;;;;;17.48;4.47;;;;;;;15.37;nan;100924.84;4962897;28;20035;-85
2022/04/26 14:35:34;;;;;;;5.50;2.17;;;;;;;15.40;nan;100916.75;4978986;28;20049;-84
2022/04/26 14:38:02;;;;;;;4.07;2.40;;;;;;;15.36;nan;100920.44;4960173;28;20042;-85
2022/04/26 14:40:29;;;;;;;3.25;2.10;;;;;;;15.41;nan;100917.63;4981662;28;20050;-87
2022/04/26 14:43:01;;;;;;;3.03;2.00;;;;;;;15.39;nan;100917.69;4990222;28;20044;-86
2022/04/26 14:45:32;;;;;;;3.13;2.25;;;;;;;15.37;nan;100916.84;4972891;28;20052;-82
2022/04/26 14:48:02;;;;;;;2.85;2.15;;;;;;;15.29;nan;100924.25;4973363;28;20045;-83
2022/04/26 14:50:30;;;;;;;5.82;2.45;;;;;;;15.28;nan;100918.97;4990886;28;20036;-84
2022/04/26 14:52:57;;;;;;;3.03;1.80;;;;;;;15.20;nan;100921.91;4980351;28;20037;-83
2022/04/26 14:55:24;;;;;;;3.10;2.28;;;;;;;15.28;nan;100908.31;4990345;28;20048;-80
2022/04/26 14:57:53;;;;;;;2.35;2.00;;;;;;;15.21;nan;100924.50;4984724;28;20034;-80
2022/04/26 15:00:19;;;;;;;3.08;2.03;;;;;;;15.21;nan;100915.66;4988767;28;20042;-80
2022/04/26 15:02:46;;;;;;;1.85;1.73;;;;;;;15.32;nan;100917.97;4981648;28;20052;-82
2022/04/26 15:05:13;;;;;;;2.55;2.13;;;;;;;15.28;nan;100913.66;4978192;28;20049;-80
2022/04/26 15:10:27;;;;;;;2.88;2.28;;;;;;;15.19;nan;100921.03;5010161;28;20044;-82
2022/04/26 15:18:25;;;;;;;3.40;2.20;;;;;;;15.12;nan;100921.31;4996175;28;20053;-85
2022/04/26 15:20:52;;;;;;;3.42;2.15;;;;;;;15.33;nan;100914.38;4983644;28;20048;-80
2022/04/26 15:23:20;;;;;;;2.20;2.00;;;;;;;15.28;nan;100921.63;4979810;28;20046;-86
2022/04/26 15:25:52;;;;;;;2.90;2.17;;;;;;;15.26;nan;100918.16;4996664;28;20042;-84
2022/04/26 15:28:19;;;;;;;2.13;1.83;;;;;;;15.34;nan;100916.09;4993532;28;20033;-80
2022/04/26 15:30:48;;;;;;;3.03;2.03;;;;;;;15.39;nan;100919.47;4990875;28;20398;-81
2022/04/26 15:33:15;;;;;;;2.33;2.10;;;;;;;15.39;nan;100919.47;4978701;28;20044;-80
2022/04/26 15:35:42;;;;;;;4.95;2.10;;;;;;;15.75;nan;100917.28;4995952;28;20030;-81
2022/04/26 15:38:12;;;;;;;3.25;1.98;;;;;;;16.09;nan;100910.66;4979414;28;20137;-86
2022/04/26 15:40:46;;;;;;;2.63;2.05;;;;;;;16.39;nan;100913.88;4987969;28;20045;-85
2022/04/26 15:43:13;;;;;;;3.00;2.25;;;;;;;16.59;nan;100911.28;4981193;28;20042;-80
2022/04/26 15:45:42;;;;;;;2.45;1.90;;;;;;;16.74;nan;100901.81;4980189;28;20037;-80
2022/04/26 15:48:09;;;;;;;3.17;1.92;;;;;;;16.80;nan;100905.06;4991623;28;20050;-82
2022/04/26 15:50:36;;;;;;;3.33;2.13;;;;;;;16.77;nan;100907.88;4994365;28;20042;-83
2022/04/26 15:53:03;;;;;;;2.65;2.05;;;;;;;16.69;nan;100904.66;4987788;28;20405;-81
2022/04/26 15:55:34;;;;;;;2.65;1.50;;;;;;;16.57;nan;100914.00;4999337;28;20060;-81
2022/04/26 15:58:01;;;;;;;2.35;2.03;;;;;;;16.64;nan;100908.41;5013004;28;20663;-80
2022/04/26 16:00:28;;;;;;;2.20;1.90;;;;;;;16.24;nan;100915.38;4995402;28;20037;-80
2022/04/26 16:02:55;;;;;;;2.42;2.22;;;;;;;16.28;nan;100914.31;4983212;28;20413;-84
2022/04/26 16:05:22;;;;;;;3.03;2.00;;;;;;;16.27;nan;100913.44;5011188;28;20048;-85
2022/04/26 16:07:51;;;;;;;3.10;2.00;;;;;;;16.14;nan;100914.84;4998208;28;20059;-80
2022/04/26 16:21:23;;;;;;;3.13;2.10;;;;;;;15.66;nan;100917.63;5000583;28;20037;-86
2022/04/26 16:23:50;;;;;;;4.43;2.10;;;;;;;15.67;nan;100920.22;4996192;28;20034;-81
2022/04/26 16:26:19;;;;;;;6.18;1.98;;;;;;;15.60;nan;100918.69;5015276;28;20056;-81
2022/04/26 16:28:51;;;;;;;3.03;2.20;;;;;;;15.31;nan;100921.53;5011287;28;20050;-79
2022/04/26 16:31:27;;;;;;;3.33;2.22;;;;;;;15.38;nan;100923.91;4999530;28;20037;-79
2022/04/26 16:33:56;;;;;;;4.43;2.38;;;;;;;15.26;nan;100923.50;4981764;28;20054;-84
2022/04/26 16:36:23;;;;;;;2.58;1.90;;;;;;;15.06;nan;100925.06;5015291;28;20402;-80
2022/04/26 16:38:50;;;;;;;2.92;1.95;;;;;;;15.06;nan;100934.84;4960525;28;20050;-80
2022/04/26 16:41:19;;;;;;;2.63;2.20;;;;;;;14.92;nan;100925.53;4992192;28;20040;-82
2022/04/26 16:43:46;;;;;;;3.33;2.42;;;;;;;14.82;nan;100933.88;4994680;28;20044;-81
2022/04/26 16:46:19;;;;;;;4.00;2.30;;;;;;;14.75;nan;100940.31;4978545;28;20052;-84
2022/04/26 16:48:46;;;;;;;3.28;2.42;;;;;;;14.66;nan;100944.16;4990639;28;20398;-82
2022/04/26 16:51:16;;;;;;;2.20;2.00;;;;;;;14.51;nan;100942.84;4990438;28;20452;-84
2022/04/26 16:53:44;;;;;;;3.28;2.00;;;;;;;14.24;nan;100938.38;4993912;28;20034;-80
2022/04/26 16:56:11;;;;;;;3.08;1.95;;;;;;;14.21;nan;100947.34;4997336;28;20038;-81
2022/04/26 16:58:38;;;;;;;2.78;2.00;;;;;;;14.16;nan;100943.06;4992646;28;20065;-82
2022/04/26 17:01:05;;;;;;;2.38;2.00;;;;;;;14.00;nan;100951.50;4988145;28;20064;-79
2022/04/26 17:03:32;;;;;;;3.05;2.00;;;;;;;13.86;nan;100955.47;4976240;28;20049;-79
2022/04/26 17:06:00;;;;;;;2.63;1.98;;;;;;;13.71;nan;100955.03;4994087;28;20046;-79
2022/04/26 17:08:27;;;;;;;4.88;2.20;;;;;;;13.48;nan;100968.06;4976858;28;20052;-79
2022/04/26 17:11:41;;;;;;;3.05;2.03;;;;;;;13.30;nan;100966.78;4992266;28;20056;-80
2022/04/26 17:13:44;;;;;;;2.20;1.80;;;;;;;13.15;nan;100959.19;4987801;28;20031;-80
2022/04/26 17:16:12;;;;;;;2.95;2.28;;;;;;;13.06;nan;100962.97;4987430;28;20038;-80
2022/04/26 17:18:41;;;;;;;2.38;2.17;;;;;;;12.94;nan;100972.06;4995284;28;20046;-80
2022/04/26 17:21:08;;;;;;;2.28;1.83;;;;;;;12.85;nan;100976.75;4993741;28;20068;-80
2022/04/26 17:23:36;;;;;;;2.20;1.75;;;;;;;12.61;nan;100987.06;5007705;28;20398;-80
2022/04/26 17:26:03;;;;;;;3.72;2.10;;;;;;;12.61;nan;100983.50;4981795;28;20041;-82
2022/04/26 17:28:30;;;;;;;2.22;1.80;;;;;;;12.61;nan;100988.81;4989906;28;20048;-80
2022/04/26 17:30:57;;;;;;;2.65;2.20;;;;;;;12.46;nan;100992.72;4995500;28;20053;-85
2022/04/26 17:33:24;;;;;;;2.30;2.10;;;;;;;12.34;nan;100991.19;4995748;28;20044;-80
2022/04/26 17:35:50;;;;;;;3.45;1.95;;;;;;;12.34;nan;100988.53;4962794;28;20425;-84
2022/04/26 17:38:17;;;;;;;3.63;2.10;;;;;;;12.32;nan;100994.78;5006151;28;20046;-79
2022/04/26 17:40:44;;;;;;;2.35;2.10;;;;;;;12.29;nan;101002.81;4976951;28;20848;-80
2022/04/26 17:43:11;;;;;;;3.72;2.40;;;;;;;12.23;nan;101009.09;4978250;28;20046;-82
2022/04/26 17:45:40;;;;;;;3.03;2.45;;;;;;;12.16;nan;101004.84;4959677;28;20046;-81
2022/04/26 17:48:07;;;;;;;2.42;2.00;;;;;;;12.09;nan;101008.53;4979272;28;20050;-84
2022/04/26 17:50:35;;;;;;;2.83;1.77;;;;;;;12.07;nan;101013.00;4970364;28;20052;-80
2022/04/26 17:58:32;;;;;;;2.25;1.80;;;;;;;11.82;nan;101031.16;4976438;28;20050;-80
2022/04/26 18:00:59;;;;;;;2.35;1.92;;;;;;;11.73;nan;101032.16;4983617;28;20056;-85
2022/04/26 18:03:27;;;;;;;2.35;2.00;;;;;;;11.68;nan;101031.38;4972801;28;20049;-81
2022/04/26 18:05:54;;;;;;;2.03;1.75;;;;;;;11.66;nan;101034.97;4990856;28;20477;-84
2022/04/26 18:08:25;;;;;;;2.85;2.20;;;;;;;11.64;nan;101037.63;4977876;28;20614;-81
2022/04/26 18:10:52;;;;;;;3.63;2.10;;;;;;;11.68;nan;101035.78;4974604;28;20042;-82
2022/04/26 18:13:19;;;;;;;2.42;1.90;;;;;;;11.71;nan;101043.69;4978281;28;20081;-80
2022/04/26 18:15:46;;;;;;;2.92;2.03;;;;;;;11.64;nan;101044.69;4971655;28;20045;-83
2022/04/26 18:18:13;;;;;;;2.90;2.15;;;;;;;11.53;nan;101055.50;4966270;28;20053;-84
2022/04/26 18:20:40;;;;;;;3.50;2.33;;;;;;;11.49;nan;101059.06;4986001;28;20120;-82
2022/04/26 18:23:07;;;;;;;2.60;2.35;;;;;;;11.44;nan;101059.19;4988295;28;20042;-83
2022/04/26 18:28:20;;;;;;;3.20;2.25;;;;;;;11.32;nan;101055.84;4994978;28;20048;-80
2022/04/26 18:30:47;;;;;;;2.17;1.90;;;;;;;11.24;nan;101061.28;4993724;28;20109;-79
2022/04/26 18:33:14;;;;;;;3.13;2.15;;;;;;;11.22;nan;101068.38;4974146;28;20051;-80
2022/04/26 18:35:41;;;;;;;2.90;2.00;;;;;;;11.21;nan;101075.44;4977928;28;20038;-80
2022/04/26 18:38:09;;;;;;;2.25;1.92;;;;;;;11.16;nan;101077.25;4970480;28;20042;-83
2022/04/26 18:40:36;;;;;;;2.35;2.10;;;;;;;11.08;nan;101076.50;4992818;28;20041;-82
2022/04/26 18:43:04;;;;;;;2.80;2.60;;;;;;;11.07;nan;101077.41;4978860;28;20608;-82